Time;durP1;ratioP1;P1;durP2;ratioP2;P2;SDS_P1;SDS_P2;PMS_P1;PMS_P2;Temp;Humidity;BMP_temperature;BMP_pressure;BME280_temperature;BME280_humidity;BME280_pressure;Samples;Min_cycle;Max_cycle;Signal;HPM_P1;HPM_P2
2023/09/05 00:02:21;;;;;;;8.30;3.70;;;22.80;99.90;;;;;;5001742;28;20029;-77
2023/09/05 00:04:47;;;;;;;6.80;3.30;;;22.70;99.90;;;;;;5006102;28;20046;-77
2023/09/05 00:07:14;;;;;;;4.78;3.33;;;22.60;99.90;;;;;;5004527;28;20070;-77
2023/09/05 00:09:39;;;;;;;5.70;3.00;;;22.60;99.90;;;;;;5007517;28;20092;-77
2023/09/05 00:12:06;;;;;;;15.85;3.00;;;22.60;99.90;;;;;;5005188;28;20510;-77
2023/09/05 00:14:32;;;;;;;5.20;3.00;;;22.60;99.90;;;;;;5003947;28;20034;-77
2023/09/05 00:16:58;;;;;;;4.57;2.85;;;22.50;99.90;;;;;;5004278;28;20061;-77
2023/09/05 00:19:23;;;;;;;5.72;3.00;;;22.50;99.90;;;;;;5003403;28;20025;-77
2023/09/05 00:21:49;;;;;;;4.50;2.80;;;22.50;99.90;;;;;;5003072;28;20030;-78
2023/09/05 00:24:31;;;;;;;11.32;2.78;;;22.50;99.90;;;;;;5002089;28;20033;-77
2023/09/05 00:26:57;;;;;;;5.15;2.95;;;22.40;99.90;;;;;;5003590;28;20035;-77
2023/09/05 00:29:24;;;;;;;4.40;3.40;;;22.20;99.90;;;;;;5009354;28;20048;-77
2023/09/05 00:31:50;;;;;;;4.15;2.72;;;22.10;99.90;;;;;;5003310;28;20114;-78
2023/09/05 00:34:16;;;;;;;7.55;3.17;;;22.10;99.90;;;;;;5008346;28;20522;-77
2023/09/05 00:36:42;;;;;;;6.22;2.85;;;22.10;99.90;;;;;;5002270;28;20105;-77
2023/09/05 00:39:09;;;;;;;7.35;3.13;;;22.10;99.90;;;;;;4999290;28;20030;-77
2023/09/05 00:41:37;;;;;;;5.82;3.15;;;22.10;99.90;;;;;;5002278;28;20037;-77
2023/09/05 00:44:04;;;;;;;4.78;3.25;;;22.10;99.90;;;;;;5001080;28;20018;-77
2023/09/05 00:46:32;;;;;;;4.72;2.90;;;22.10;99.90;;;;;;5001033;28;20045;-77
2023/09/05 00:49:02;;;;;;;4.97;2.90;;;22.20;99.90;;;;;;5002183;28;20081;-77
2023/09/05 00:51:31;;;;;;;4.82;2.90;;;22.20;99.90;;;;;;4998925;28;20041;-77
2023/09/05 00:53:59;;;;;;;7.28;3.58;;;22.20;99.90;;;;;;5004484;28;20391;-77
2023/09/05 00:56:25;;;;;;;5.47;3.55;;;22.10;99.90;;;;;;5005480;28;20022;-77
2023/09/05 00:58:51;;;;;;;8.77;3.00;;;22.10;99.90;;;;;;5003853;28;20068;-77
2023/09/05 01:01:17;;;;;;;4.47;3.03;;;22.00;99.90;;;;;;4996891;28;20102;-77
2023/09/05 01:03:43;;;;;;;5.00;2.85;;;22.10;99.90;;;;;;5000524;28;20034;-77
2023/09/05 01:06:13;;;;;;;6.35;3.42;;;22.00;99.90;;;;;;5001833;28;20400;-77
2023/09/05 01:08:52;;;;;;;4.68;2.83;;;21.90;99.90;;;;;;4999705;28;20034;-77
2023/09/05 01:11:18;;;;;;;7.40;2.97;;;21.80;99.90;;;;;;4999818;28;20046;-77
2023/09/05 01:13:44;;;;;;;5.82;2.80;;;21.90;99.90;;;;;;5004802;28;20128;-77
2023/09/05 01:16:10;;;;;;;4.93;3.00;;;21.90;99.90;;;;;;5000577;28;20165;-77
2023/09/05 01:18:39;;;;;;;7.32;2.92;;;21.90;99.90;;;;;;5003366;28;20033;-77
2023/09/05 01:21:35;;;;;;;10.48;3.20;;;21.90;99.90;;;;;;5003359;28;20072;-77
2023/09/05 01:24:20;;;;;;;6.38;3.08;;;21.90;99.90;;;;;;5000217;28;20034;-77
2023/09/05 01:26:47;;;;;;;6.00;3.03;;;21.90;99.90;;;;;;5001775;28;20030;-77
2023/09/05 01:29:17;;;;;;;4.22;2.63;;;21.90;99.90;;;;;;5000885;28;20389;-77
2023/09/05 01:31:45;;;;;;;5.88;3.35;;;21.90;99.90;;;;;;5001316;28;20485;-77
2023/09/05 01:34:11;;;;;;;5.35;2.83;;;21.90;99.90;;;;;;4997752;28;20558;-77
2023/09/05 01:36:36;;;;;;;6.82;3.40;;;21.90;99.90;;;;;;5001356;28;20025;-77
2023/09/05 01:39:02;;;;;;;5.22;3.05;;;21.90;99.90;;;;;;5002569;28;20381;-77
2023/09/05 01:41:28;;;;;;;4.20;2.63;;;21.90;99.90;;;;;;5001730;28;20022;-77
2023/09/05 01:43:53;;;;;;;4.57;2.75;;;21.70;99.90;;;;;;5002515;28;20038;-77
2023/09/05 01:46:20;;;;;;;5.68;2.85;;;21.70;99.90;;;;;;5001095;28;20060;-77
2023/09/05 01:48:46;;;;;;;5.43;3.17;;;21.70;99.90;;;;;;5003692;28;20576;-77
2023/09/05 01:51:11;;;;;;;4.25;2.63;;;21.70;99.90;;;;;;4998893;28;20113;-77
2023/09/05 01:53:37;;;;;;;4.88;3.20;;;21.70;99.90;;;;;;5001065;28;20110;-77
2023/09/05 01:56:03;;;;;;;4.40;2.65;;;21.70;99.90;;;;;;5001724;28;20038;-77
2023/09/05 01:58:28;;;;;;;6.55;3.00;;;21.70;99.90;;;;;;4997893;28;20053;-77
2023/09/05 02:00:54;;;;;;;5.70;3.05;;;21.70;99.90;;;;;;5000104;28;20038;-77
2023/09/05 02:03:20;;;;;;;5.70;2.80;;;21.50;99.90;;;;;;5002496;28;20027;-77
2023/09/05 02:05:45;;;;;;;5.18;2.85;;;21.40;99.90;;;;;;5001895;28;20072;-77
2023/09/05 02:08:11;;;;;;;7.40;3.60;;;21.20;99.90;;;;;;5006527;28;20025;-77
2023/09/05 02:10:37;;;;;;;6.78;2.65;;;21.00;99.90;;;;;;5003650;28;20038;-77
2023/09/05 02:13:03;;;;;;;5.72;3.38;;;21.00;99.90;;;;;;5002026;28;20390;-77
2023/09/05 02:15:28;;;;;;;4.88;3.08;;;20.90;99.90;;;;;;5003407;28;20688;-77
2023/09/05 02:17:55;;;;;;;6.88;3.17;;;21.00;99.90;;;;;;5000669;28;20038;-77
2023/09/05 02:20:22;;;;;;;5.38;3.00;;;20.90;99.90;;;;;;5001278;28;20038;-77
2023/09/05 02:22:48;;;;;;;7.07;3.35;;;20.90;99.90;;;;;;4999018;28;20029;-77
2023/09/05 02:25:14;;;;;;;5.68;3.05;;;20.80;99.90;;;;;;4997235;28;20038;-77
2023/09/05 02:27:40;;;;;;;7.50;3.35;;;20.80;99.90;;;;;;4999945;28;20029;-77
2023/09/05 02:30:07;;;;;;;4.82;3.35;;;20.80;99.90;;;;;;4997825;28;20074;-77
2023/09/05 02:32:33;;;;;;;10.75;3.45;;;20.90;99.90;;;;;;5003314;28;20543;-77
2023/09/05 02:34:59;;;;;;;4.18;2.88;;;20.80;99.90;;;;;;5003005;28;20157;-77
2023/09/05 02:37:25;;;;;;;4.65;2.90;;;20.70;99.90;;;;;;4999268;28;20034;-77
2023/09/05 02:39:52;;;;;;;5.80;3.35;;;20.70;99.90;;;;;;4999873;28;20029;-77
2023/09/05 02:42:18;;;;;;;6.05;2.95;;;20.70;99.90;;;;;;5001898;28;20038;-76
2023/09/05 02:44:44;;;;;;;6.50;3.03;;;20.70;99.90;;;;;;4998374;28;20052;-77
2023/09/05 02:47:09;;;;;;;5.57;3.40;;;20.80;99.90;;;;;;4999124;28;20365;-77
2023/09/05 02:49:35;;;;;;;5.85;2.75;;;20.90;99.90;;;;;;5002240;28;20042;-77
2023/09/05 02:52:01;;;;;;;4.28;2.53;;;21.00;99.90;;;;;;5001700;28;20034;-77
2023/09/05 02:54:29;;;;;;;4.20;2.42;;;21.10;99.90;;;;;;4998447;28;20080;-77
2023/09/05 02:56:55;;;;;;;5.90;2.85;;;21.20;99.90;;;;;;5000587;28;20060;-76
2023/09/05 02:59:21;;;;;;;5.18;2.95;;;21.20;99.90;;;;;;4997607;28;20028;-77
2023/09/05 03:01:47;;;;;;;5.00;2.83;;;21.30;99.90;;;;;;5003524;28;20061;-76
2023/09/05 03:04:16;;;;;;;4.60;2.70;;;21.30;99.90;;;;;;4995470;28;20042;-76
2023/09/05 03:06:41;;;;;;;4.72;3.00;;;21.30;99.90;;;;;;5000281;28;20034;-76
2023/09/05 03:09:07;;;;;;;4.10;2.40;;;21.30;99.90;;;;;;4997773;28;20030;-77
2023/09/05 03:11:33;;;;;;;4.38;2.42;;;21.30;99.90;;;;;;4996892;28;20476;-77
2023/09/05 03:13:58;;;;;;;4.93;2.88;;;21.30;99.90;;;;;;4997504;28;20029;-76
2023/09/05 03:16:24;;;;;;;5.53;2.65;;;21.20;99.90;;;;;;4994466;28;20117;-77
2023/09/05 03:18:50;;;;;;;5.18;2.30;;;21.20;99.90;;;;;;4996358;28;20920;-76
2023/09/05 03:21:17;;;;;;;8.32;2.55;;;21.10;99.90;;;;;;4994191;28;20408;-76
2023/09/05 03:23:43;;;;;;;5.22;2.13;;;21.10;99.90;;;;;;4998113;28;20026;-76
2023/09/05 03:26:09;;;;;;;4.63;2.20;;;21.20;99.90;;;;;;4998042;28;20080;-76
2023/09/05 03:28:41;;;;;;;4.72;2.28;;;21.20;99.40;;;;;;4999828;28;20037;-76
2023/09/05 03:31:07;;;;;;;6.05;2.88;;;21.20;99.30;;;;;;4992471;28;20582;-77
2023/09/05 03:33:32;;;;;;;5.70;2.38;;;21.30;99.20;;;;;;4997711;28;20106;-76
2023/09/05 03:35:58;;;;;;;3.58;2.10;;;21.30;98.90;;;;;;4997288;28;20492;-77
2023/09/05 03:38:24;;;;;;;6.20;2.40;;;21.30;98.90;;;;;;4997143;28;20036;-75
2023/09/05 03:40:49;;;;;;;3.95;2.10;;;21.30;98.90;;;;;;4992233;28;20054;-76
2023/09/05 03:43:15;;;;;;;5.88;2.60;;;21.20;98.80;;;;;;4993534;28;20059;-76
2023/09/05 03:45:41;;;;;;;5.30;2.22;;;21.30;99.30;;;;;;4990779;28;20531;-76
2023/09/05 03:48:06;;;;;;;7.28;3.05;;;21.30;99.10;;;;;;4995159;28;20829;-76
2023/09/05 03:50:32;;;;;;;3.63;2.08;;;21.20;99.30;;;;;;4992682;28;20137;-76
2023/09/05 03:52:58;;;;;;;4.13;2.20;;;21.20;99.30;;;;;;4994011;28;20026;-76
2023/09/05 03:55:24;;;;;;;6.07;2.60;;;21.20;99.20;;;;;;4989190;28;20061;-76
2023/09/05 03:57:49;;;;;;;4.10;2.15;;;21.20;99.60;;;;;;4992707;28;20042;-76
2023/09/05 04:00:15;;;;;;;6.28;2.90;;;21.10;99.80;;;;;;4992702;28;20038;-76
2023/09/05 04:02:40;;;;;;;4.43;2.05;;;20.90;99.90;;;;;;4993622;28;20042;-75
2023/09/05 04:05:07;;;;;;;4.55;2.38;;;20.80;99.90;;;;;;4993734;28;20088;-75
2023/09/05 04:07:34;;;;;;;6.55;2.22;;;20.80;99.90;;;;;;5002129;28;20026;-76
2023/09/05 04:09:59;;;;;;;5.68;2.63;;;20.80;99.90;;;;;;5004353;28;20038;-77
2023/09/05 04:12:25;;;;;;;6.03;2.80;;;20.70;99.90;;;;;;4991210;28;20034;-76
2023/09/05 04:14:51;;;;;;;4.53;2.40;;;20.80;99.90;;;;;;4985878;28;20452;-76
2023/09/05 04:17:17;;;;;;;5.03;1.92;;;20.80;99.90;;;;;;4994162;28;20038;-76
2023/09/05 04:19:42;;;;;;;3.53;1.95;;;20.90;99.80;;;;;;4991195;28;20026;-76
2023/09/05 04:22:08;;;;;;;3.88;2.38;;;20.90;99.90;;;;;;4988509;28;20100;-75
2023/09/05 04:24:34;;;;;;;5.35;2.30;;;20.90;99.90;;;;;;4989174;28;20034;-76
2023/09/05 04:26:59;;;;;;;7.05;2.75;;;20.80;99.90;;;;;;4989576;28;20037;-76
2023/09/05 04:29:25;;;;;;;3.50;1.95;;;20.80;99.90;;;;;;4986401;28;20577;-77
2023/09/05 04:31:51;;;;;;;5.03;2.70;;;20.70;99.90;;;;;;4972840;28;20033;-77
2023/09/05 04:34:17;;;;;;;4.38;2.28;;;20.70;99.90;;;;;;4993245;28;20030;-77
2023/09/05 04:36:42;;;;;;;4.03;2.28;;;20.50;99.90;;;;;;4998260;28;20524;-77
2023/09/05 04:39:08;;;;;;;4.85;2.47;;;20.60;99.90;;;;;;5000090;28;20018;-78
2023/09/05 04:41:33;;;;;;;5.10;2.30;;;20.60;99.90;;;;;;4994590;28;20031;-77
2023/09/05 04:43:59;;;;;;;4.03;2.22;;;20.60;99.90;;;;;;4997076;28;21091;-77
2023/09/05 04:46:26;;;;;;;5.43;2.47;;;20.60;99.90;;;;;;4996760;28;20504;-78
2023/09/05 04:48:53;;;;;;;4.60;2.22;;;20.60;99.90;;;;;;4993391;28;20037;-78
2023/09/05 04:51:19;;;;;;;4.85;2.47;;;20.60;99.90;;;;;;4993353;28;20033;-78
2023/09/05 04:53:44;;;;;;;6.22;3.08;;;20.60;99.90;;;;;;4993793;28;20038;-77
2023/09/05 04:56:10;;;;;;;6.20;2.60;;;20.60;99.90;;;;;;4995061;28;20587;-77
2023/09/05 04:58:36;;;;;;;5.10;2.60;;;20.50;99.90;;;;;;4996457;28;20038;-77
2023/09/05 05:01:02;;;;;;;5.32;2.03;;;20.50;99.90;;;;;;4993409;28;20032;-78
2023/09/05 05:03:32;;;;;;;4.90;2.17;;;20.50;99.90;;;;;;4993654;28;20034;-78
2023/09/05 05:05:58;;;;;;;5.18;2.22;;;20.50;99.90;;;;;;4994494;28;20054;-77
2023/09/05 05:08:24;;;;;;;3.75;2.20;;;20.60;99.90;;;;;;4991193;28;20030;-78
2023/09/05 05:10:50;;;;;;;5.03;2.30;;;20.70;99.90;;;;;;4993581;28;20042;-77
2023/09/05 05:13:15;;;;;;;6.15;2.70;;;20.60;99.90;;;;;;4994348;28;20404;-77
2023/09/05 05:15:43;;;;;;;4.05;2.30;;;20.60;99.90;;;;;;4999846;28;20139;-77
2023/09/05 05:18:09;;;;;;;6.95;2.53;;;20.60;99.90;;;;;;4989834;28;20066;-77
2023/09/05 05:20:34;;;;;;;6.15;2.92;;;20.70;99.90;;;;;;4998463;28;20062;-77
2023/09/05 05:23:00;;;;;;;6.43;2.60;;;20.70;99.90;;;;;;4994560;28;20093;-77
2023/09/05 05:25:26;;;;;;;6.22;2.53;;;20.70;99.90;;;;;;4993784;28;20034;-77
2023/09/05 05:27:51;;;;;;;4.10;2.30;;;20.70;99.90;;;;;;4993387;28;20036;-77
2023/09/05 05:30:17;;;;;;;6.82;2.28;;;20.60;99.90;;;;;;4998391;28;20133;-76
2023/09/05 05:32:46;;;;;;;3.83;2.22;;;20.60;99.90;;;;;;4993277;28;20103;-78
2023/09/05 05:35:11;;;;;;;4.18;2.45;;;20.70;99.90;;;;;;4993870;28;20034;-77
2023/09/05 05:37:37;;;;;;;5.38;2.35;;;20.70;99.90;;;;;;4995413;28;20027;-77
2023/09/05 05:40:03;;;;;;;3.83;2.33;;;20.60;99.90;;;;;;4995435;28;20062;-76
2023/09/05 05:42:29;;;;;;;4.68;2.30;;;20.60;99.90;;;;;;4994168;28;20548;-77
2023/09/05 05:44:55;;;;;;;4.68;2.78;;;20.60;99.90;;;;;;4988061;28;20032;-78
2023/09/05 05:47:22;;;;;;;7.18;2.42;;;20.70;99.90;;;;;;4988684;28;20042;-78
2023/09/05 05:49:48;;;;;;;4.97;2.22;;;20.70;99.90;;;;;;4994419;28;20100;-79
2023/09/05 05:52:14;;;;;;;4.13;2.30;;;20.70;99.90;;;;;;4998059;28;20029;-77
2023/09/05 05:54:39;;;;;;;7.00;2.17;;;20.70;99.90;;;;;;4994064;28;20034;-77
2023/09/05 05:57:05;;;;;;;4.38;2.45;;;20.80;99.90;;;;;;4994511;28;20026;-77
2023/09/05 05:59:31;;;;;;;5.68;2.25;;;20.80;99.90;;;;;;4991924;28;20037;-77
2023/09/05 06:01:57;;;;;;;7.10;2.22;;;20.90;99.90;;;;;;4996221;28;20083;-77
2023/09/05 06:04:23;;;;;;;5.43;2.65;;;21.00;99.90;;;;;;4996361;28;20535;-79
2023/09/05 06:06:49;;;;;;;3.33;1.77;;;21.00;99.90;;;;;;5001877;28;20022;-76
2023/09/05 06:09:18;;;;;;;4.07;2.20;;;21.00;99.90;;;;;;4995638;28;20026;-75
2023/09/05 06:11:45;;;;;;;4.95;2.10;;;20.90;99.90;;;;;;4999358;28;20034;-74
2023/09/05 06:14:11;;;;;;;4.82;2.53;;;20.90;99.90;;;;;;4995025;28;20377;-75
2023/09/05 06:16:37;;;;;;;3.25;1.95;;;20.90;99.90;;;;;;4995959;28;20027;-75
2023/09/05 06:19:03;;;;;;;4.32;2.30;;;21.00;99.90;;;;;;4997044;28;20654;-75
2023/09/05 06:21:29;;;;;;;6.50;2.70;;;21.00;99.80;;;;;;4987571;28;20147;-75
2023/09/05 06:23:54;;;;;;;4.45;1.95;;;20.90;99.60;;;;;;4995570;28;20136;-75
2023/09/05 06:26:20;;;;;;;4.72;2.10;;;21.00;99.50;;;;;;4990799;28;20042;-75
2023/09/05 06:28:47;;;;;;;6.13;2.50;;;21.10;99.30;;;;;;4989978;28;20499;-75
2023/09/05 06:31:14;;;;;;;4.65;2.22;;;21.10;99.30;;;;;;4974942;28;20247;-75
2023/09/05 06:33:39;;;;;;;3.97;2.10;;;21.10;99.40;;;;;;4992049;28;20026;-75
2023/09/05 06:36:11;;;;;;;8.20;2.42;;;21.10;99.40;;;;;;4995451;28;20040;-75
2023/09/05 06:38:36;;;;;;;5.13;2.17;;;21.10;99.70;;;;;;4996964;28;20025;-75
2023/09/05 06:41:10;;;;;;;4.07;2.30;;;21.00;99.40;;;;;;4987519;28;20483;-75
2023/09/05 06:43:36;;;;;;;4.00;2.22;;;21.00;99.60;;;;;;4991377;28;20665;-75
2023/09/05 06:46:06;;;;;;;5.75;1.90;;;21.10;99.80;;;;;;4996010;28;20034;-76
2023/09/05 06:48:34;;;;;;;5.93;2.15;;;21.10;99.40;;;;;;4997400;28;20057;-76
2023/09/05 06:51:00;;;;;;;5.10;2.35;;;21.20;99.00;;;;;;4995723;28;20046;-74
2023/09/05 06:53:30;;;;;;;4.05;2.30;;;21.30;98.80;;;;;;4995655;28;20416;-77
2023/09/05 06:55:56;;;;;;;6.85;1.85;;;21.40;98.80;;;;;;4994761;28;20499;-78
2023/09/05 06:58:24;;;;;;;5.82;1.80;;;21.40;99.00;;;;;;4994643;28;20073;-79
2023/09/05 07:00:54;;;;;;;7.68;2.60;;;21.40;98.60;;;;;;4990201;28;20518;-77
2023/09/05 07:03:24;;;;;;;4.60;2.13;;;21.40;98.40;;;;;;4996336;28;20092;-75
2023/09/05 07:05:51;;;;;;;3.92;2.05;;;21.40;98.50;;;;;;4997172;28;20054;-75
2023/09/05 07:08:16;;;;;;;5.00;2.10;;;21.50;98.50;;;;;;4994565;28;20030;-75
2023/09/05 07:10:42;;;;;;;4.15;1.80;;;21.40;98.50;;;;;;4990381;28;20053;-74
2023/09/05 07:13:08;;;;;;;3.92;2.00;;;21.40;98.40;;;;;;4999330;28;20040;-76
2023/09/05 07:15:33;;;;;;;7.30;2.10;;;21.40;99.10;;;;;;4993889;28;20084;-75
2023/09/05 07:17:59;;;;;;;7.63;2.40;;;21.40;98.40;;;;;;4992979;28;20379;-74
2023/09/05 07:20:25;;;;;;;7.68;1.95;;;21.30;98.30;;;;;;4999281;28;20451;-73
2023/09/05 07:22:51;;;;;;;4.90;1.80;;;21.40;98.30;;;;;;4995116;28;20022;-74
2023/09/05 07:25:16;;;;;;;7.03;2.15;;;21.50;98.60;;;;;;4996266;28;20025;-74
2023/09/05 07:27:42;;;;;;;4.43;1.95;;;21.50;98.50;;;;;;4990831;28;20432;-74
2023/09/05 07:30:08;;;;;;;6.38;1.98;;;21.30;98.40;;;;;;4997433;28;20049;-73
2023/09/05 07:32:34;;;;;;;4.25;2.08;;;21.40;98.30;;;;;;4992340;28;20045;-74
2023/09/05 07:35:00;;;;;;;4.32;2.10;;;21.40;98.20;;;;;;4995187;28;20449;-74
2023/09/05 07:37:25;;;;;;;4.60;2.25;;;21.50;98.50;;;;;;4989507;28;20583;-74
2023/09/05 07:39:52;;;;;;;4.68;2.10;;;21.50;98.30;;;;;;4994080;28;20034;-73
2023/09/05 07:42:18;;;;;;;4.38;1.80;;;21.50;98.70;;;;;;4993901;28;20124;-74
2023/09/05 07:44:44;;;;;;;4.75;2.55;;;21.70;98.80;;;;;;4995222;28;20080;-73
2023/09/05 07:47:09;;;;;;;6.72;2.10;;;21.80;98.70;;;;;;4995491;28;20034;-74
2023/09/05 07:49:36;;;;;;;4.95;2.15;;;21.70;98.30;;;;;;4990323;28;20464;-73
2023/09/05 07:52:02;;;;;;;5.32;1.80;;;21.80;98.00;;;;;;4990591;28;20030;-74
2023/09/05 07:54:28;;;;;;;4.40;2.15;;;21.90;97.60;;;;;;4990775;28;20042;-74
2023/09/05 07:56:53;;;;;;;5.88;2.20;;;21.80;97.90;;;;;;4984874;28;20373;-73
2023/09/05 07:59:19;;;;;;;4.93;2.03;;;21.90;97.80;;;;;;4990654;28;20031;-73
2023/09/05 08:01:45;;;;;;;10.02;2.55;;;21.70;98.00;;;;;;4995277;28;20038;-74
2023/09/05 08:04:11;;;;;;;8.43;2.20;;;21.70;97.80;;;;;;4996096;28;20038;-74
2023/09/05 08:06:36;;;;;;;18.23;7.90;;;21.80;97.60;;;;;;4994875;28;20029;-74
2023/09/05 08:09:02;;;;;;;7.07;2.70;;;21.80;97.60;;;;;;4992807;28;20034;-75
2023/09/05 08:11:28;;;;;;;6.53;2.17;;;21.90;97.40;;;;;;4993902;28;20018;-75
2023/09/05 08:13:53;;;;;;;8.30;3.17;;;21.90;97.20;;;;;;4996493;28;20690;-73
2023/09/05 08:16:19;;;;;;;5.38;2.08;;;21.90;96.80;;;;;;4994939;28;20022;-74
2023/09/05 08:18:45;;;;;;;3.40;1.60;;;21.90;96.90;;;;;;4999772;28;20357;-73
2023/09/05 08:21:10;;;;;;;4.03;1.83;;;22.00;97.30;;;;;;4993007;28;20865;-74
2023/09/05 08:23:36;;;;;;;5.15;2.35;;;22.00;98.40;;;;;;4998810;28;20034;-75
2023/09/05 08:26:02;;;;;;;6.82;2.40;;;22.10;97.70;;;;;;4997366;28;20034;-75
2023/09/05 08:28:33;;;;;;;5.43;2.15;;;22.20;98.50;;;;;;4997464;28;20069;-74
2023/09/05 08:30:59;;;;;;;4.38;2.03;;;22.50;97.40;;;;;;4994187;28;20037;-74
2023/09/05 08:33:26;;;;;;;6.22;1.88;;;22.50;97.70;;;;;;4993850;28;20026;-74
2023/09/05 08:35:53;;;;;;;4.45;2.05;;;22.50;97.30;;;;;;4998778;28;20058;-74
2023/09/05 08:38:18;;;;;;;4.55;2.10;;;22.60;97.50;;;;;;4999099;28;20026;-74
2023/09/05 08:40:45;;;;;;;3.88;2.00;;;22.80;97.90;;;;;;4993972;28;20052;-74
2023/09/05 08:43:11;;;;;;;5.93;2.20;;;23.00;97.60;;;;;;4989489;28;20029;-73
2023/09/05 08:45:39;;;;;;;7.93;2.70;;;23.10;97.50;;;;;;4988623;28;20412;-74
2023/09/05 08:48:05;;;;;;;4.95;1.98;;;23.30;97.10;;;;;;4993025;28;20114;-75
2023/09/05 08:50:32;;;;;;;6.20;2.70;;;23.30;97.10;;;;;;4999436;28;20060;-72
2023/09/05 08:53:00;;;;;;;3.50;1.95;;;23.50;97.10;;;;;;4993965;28;20034;-73
2023/09/05 08:55:26;;;;;;;8.60;2.75;;;23.60;96.70;;;;;;4996449;28;20041;-74
2023/09/05 08:57:54;;;;;;;5.25;2.17;;;23.40;96.40;;;;;;4993412;28;20030;-74
2023/09/05 09:00:21;;;;;;;3.97;2.13;;;23.50;97.00;;;;;;4991744;28;20030;-74
2023/09/05 09:02:47;;;;;;;4.25;2.28;;;23.60;97.10;;;;;;4994163;28;20631;-74
2023/09/05 09:05:13;;;;;;;6.38;2.17;;;24.10;96.60;;;;;;4992244;28;20046;-74
2023/09/05 09:07:39;;;;;;;6.55;2.72;;;23.90;96.80;;;;;;4991445;28;20026;-74
2023/09/05 09:10:21;;;;;;;6.97;2.72;;;23.90;96.90;;;;;;4994132;28;20049;-74
2023/09/05 09:12:54;;;;;;;4.50;2.10;;;23.80;97.30;;;;;;4995674;28;20042;-76
2023/09/05 09:15:24;;;;;;;4.40;2.60;;;23.70;97.10;;;;;;4991835;28;20349;-76
2023/09/05 09:17:51;;;;;;;5.32;2.33;;;24.20;96.60;;;;;;4997486;28;20408;-76
2023/09/05 09:20:19;;;;;;;10.70;2.38;;;24.00;96.90;;;;;;4990338;28;20081;-76
2023/09/05 09:22:47;;;;;;;4.57;2.22;;;23.80;96.30;;;;;;4992895;28;20099;-76
2023/09/05 09:25:20;;;;;;;4.25;2.08;;;23.80;96.90;;;;;;4994702;28;20026;-76
2023/09/05 09:27:53;;;;;;;3.42;2.03;;;23.70;96.90;;;;;;4992838;28;20036;-76
2023/09/05 09:30:24;;;;;;;5.68;2.35;;;23.70;96.90;;;;;;4991422;28;20053;-76
2023/09/05 09:32:51;;;;;;;4.88;1.95;;;23.70;96.60;;;;;;4994727;28;20077;-76
2023/09/05 09:35:17;;;;;;;3.47;2.20;;;23.60;96.20;;;;;;4990253;28;20040;-76
2023/09/05 09:37:48;;;;;;;3.35;1.70;;;23.90;96.20;;;;;;4992871;28;20092;-77
2023/09/05 09:40:17;;;;;;;5.47;2.28;;;24.20;96.50;;;;;;4992881;28;20518;-76
2023/09/05 09:42:49;;;;;;;4.47;2.10;;;24.30;96.00;;;;;;4993559;28;20030;-76
2023/09/05 09:45:18;;;;;;;4.78;1.85;;;24.40;96.40;;;;;;4995033;28;20034;-76
2023/09/05 09:47:49;;;;;;;3.65;2.00;;;24.40;95.50;;;;;;4987474;28;20038;-76
2023/09/05 09:50:19;;;;;;;3.72;1.80;;;24.30;95.00;;;;;;4988912;28;20041;-76
2023/09/05 09:52:46;;;;;;;7.00;2.65;;;24.70;95.60;;;;;;4993281;28;20026;-77
2023/09/05 09:55:15;;;;;;;5.60;1.73;;;25.00;95.30;;;;;;4991784;28;20117;-76
2023/09/05 09:57:55;;;;;;;4.38;2.22;;;24.70;95.00;;;;;;4994348;28;20026;-76
2023/09/05 10:00:23;;;;;;;4.65;2.00;;;24.40;95.10;;;;;;4991688;28;20050;-76
2023/09/05 10:02:49;;;;;;;4.57;2.20;;;24.40;95.60;;;;;;4991181;28;20049;-76
2023/09/05 10:05:17;;;;;;;5.50;2.28;;;24.20;95.70;;;;;;4990681;28;20058;-76
2023/09/05 10:07:46;;;;;;;5.45;2.60;;;24.40;95.20;;;;;;4992939;28;20030;-76
2023/09/05 10:10:15;;;;;;;4.60;2.40;;;24.70;95.70;;;;;;4993001;28;20060;-76
2023/09/05 10:12:44;;;;;;;6.43;2.90;;;25.00;95.60;;;;;;4992525;28;20087;-76
2023/09/05 10:15:12;;;;;;;3.90;2.33;;;25.00;95.20;;;;;;4998184;28;20049;-76
2023/09/05 10:17:40;;;;;;;4.75;2.47;;;24.80;95.70;;;;;;4993621;28;20045;-76
2023/09/05 10:20:07;;;;;;;6.25;2.70;;;24.70;96.00;;;;;;4990349;28;20070;-76
2023/09/05 10:22:43;;;;;;;5.65;2.80;;;24.60;95.80;;;;;;4991873;28;20121;-76
2023/09/05 10:25:12;;;;;;;7.63;2.95;;;24.60;96.40;;;;;;4999044;28;20037;-76
2023/09/05 10:27:37;;;;;;;8.00;2.42;;;24.80;95.60;;;;;;4996691;28;20030;-76
2023/09/05 10:30:03;;;;;;;8.05;2.50;;;24.90;95.60;;;;;;4996429;28;20368;-76
2023/09/05 10:32:31;;;;;;;5.13;2.85;;;25.20;95.80;;;;;;4994506;28;20113;-76
2023/09/05 10:35:03;;;;;;;5.70;2.50;;;25.50;95.30;;;;;;4994478;28;20042;-76
2023/09/05 10:37:39;;;;;;;5.47;2.88;;;25.40;95.50;;;;;;4991775;28;20113;-76
2023/09/05 10:40:07;;;;;;;6.50;2.67;;;25.40;96.30;;;;;;4994506;28;20104;-76
2023/09/05 10:42:35;;;;;;;5.78;2.70;;;25.20;96.30;;;;;;4993295;28;20026;-76
2023/09/05 10:45:22;;;;;;;6.35;2.83;;;25.00;96.90;;;;;;5002741;28;20029;-76
2023/09/05 10:47:49;;;;;;;6.07;2.53;;;24.40;97.20;;;;;;4996183;28;20034;-76
2023/09/05 10:50:20;;;;;;;6.50;3.28;;;24.30;97.10;;;;;;4990826;28;20523;-76
2023/09/05 10:53:12;;;;;;;8.27;3.00;;;24.50;97.80;;;;;;4996224;28;20030;-76
2023/09/05 10:55:46;;;;;;;4.90;2.58;;;25.00;97.60;;;;;;4987994;28;20070;-76
2023/09/05 10:58:43;;;;;;;4.57;2.60;;;24.90;97.70;;;;;;4991943;28;20022;-74
2023/09/05 11:01:29;;;;;;;3.78;2.60;;;24.80;97.30;;;;;;4992566;28;20156;-75
2023/09/05 11:03:55;;;;;;;6.22;2.83;;;24.80;97.60;;;;;;4989397;28;20377;-74
2023/09/05 11:06:22;;;;;;;24.25;3.67;;;24.70;97.40;;;;;;4991561;28;20026;-75
2023/09/05 11:09:04;;;;;;;5.68;2.70;;;24.70;97.30;;;;;;4990519;28;20034;-75
2023/09/05 11:11:30;;;;;;;10.38;3.38;;;25.00;97.40;;;;;;4988683;28;20037;-75
2023/09/05 11:13:57;;;;;;;5.20;3.10;;;25.00;96.90;;;;;;4990759;28;20106;-75
2023/09/05 11:16:24;;;;;;;5.25;2.42;;;25.00;97.30;;;;;;4994153;28;20050;-75
2023/09/05 11:18:57;;;;;;;6.35;3.40;;;24.80;97.20;;;;;;4992965;28;20035;-75
2023/09/05 11:21:24;;;;;;;6.57;2.95;;;25.20;97.20;;;;;;4991219;28;20046;-75
2023/09/05 11:23:54;;;;;;;3.72;2.33;;;25.20;96.10;;;;;;4991070;28;20029;-77
2023/09/05 11:26:23;;;;;;;6.60;3.20;;;25.10;96.20;;;;;;4993000;28;20096;-75
2023/09/05 11:28:51;;;;;;;4.85;2.63;;;25.40;96.10;;;;;;4991021;28;20026;-75
2023/09/05 11:31:17;;;;;;;7.40;3.45;;;25.10;95.10;;;;;;4991009;28;20389;-75
2023/09/05 11:33:44;;;;;;;6.10;2.88;;;25.50;95.70;;;;;;4990133;28;20038;-75
2023/09/05 11:36:11;;;;;;;5.60;2.47;;;25.60;95.00;;;;;;4990004;28;20567;-75
2023/09/05 11:38:48;;;;;;;4.70;2.50;;;25.70;95.30;;;;;;4999328;28;20033;-75
2023/09/05 11:41:15;;;;;;;5.80;2.80;;;25.50;95.10;;;;;;4991500;28;20113;-75
2023/09/05 11:43:50;;;;;;;6.40;2.72;;;25.70;95.10;;;;;;4991613;28;20044;-76
2023/09/05 11:46:17;;;;;;;5.97;3.13;;;25.90;96.20;;;;;;4989397;28;20177;-75
2023/09/05 11:48:44;;;;;;;5.97;3.15;;;26.10;94.80;;;;;;4986012;28;20388;-75
2023/09/05 11:51:14;;;;;;;6.32;2.45;;;26.10;95.40;;;;;;4994432;28;20041;-75
2023/09/05 11:53:45;;;;;;;7.82;3.63;;;25.90;94.90;;;;;;4984701;28;20105;-74
2023/09/05 11:56:11;;;;;;;6.95;3.10;;;26.00;95.60;;;;;;4986754;28;20059;-75
2023/09/05 11:58:37;;;;;;;8.88;2.90;;;25.90;95.30;;;;;;4986186;28;20030;-75
2023/09/05 12:01:03;;;;;;;7.80;3.13;;;25.90;95.80;;;;;;4988028;28;20032;-74
2023/09/05 12:03:30;;;;;;;10.10;2.95;;;25.90;94.80;;;;;;4990894;28;20173;-75
2023/09/05 12:05:56;;;;;;;6.13;3.15;;;25.60;95.40;;;;;;4994205;28;20129;-75
2023/09/05 12:08:22;;;;;;;5.32;2.83;;;25.70;94.90;;;;;;4986165;28;20034;-75
2023/09/05 12:10:51;;;;;;;7.32;3.00;;;25.80;94.70;;;;;;4985011;28;20038;-75
2023/09/05 12:13:18;;;;;;;6.15;2.83;;;26.10;95.40;;;;;;4987876;28;20042;-75
2023/09/05 12:15:45;;;;;;;5.85;3.10;;;26.30;94.80;;;;;;4987775;28;20038;-75
2023/09/05 12:18:19;;;;;;;5.75;3.10;;;26.30;95.00;;;;;;4986195;28;20610;-75
2023/09/05 12:21:00;;;;;;;5.55;3.17;;;26.50;94.70;;;;;;4993861;28;20444;-75
2023/09/05 12:23:29;;;;;;;10.52;2.92;;;26.40;95.40;;;;;;4983814;28;20022;-75
2023/09/05 12:25:56;;;;;;;6.57;2.95;;;26.50;94.90;;;;;;4992140;28;20062;-75
2023/09/05 12:28:22;;;;;;;6.35;2.95;;;26.60;94.50;;;;;;4987195;28;20381;-75
2023/09/05 12:30:53;;;;;;;5.30;2.90;;;26.30;95.00;;;;;;4988501;28;20562;-75
2023/09/05 12:33:20;;;;;;;5.57;3.20;;;26.40;94.70;;;;;;4988289;28;20168;-75
2023/09/05 12:35:46;;;;;;;6.07;2.80;;;26.60;94.70;;;;;;4985795;28;20030;-75
2023/09/05 12:38:13;;;;;;;7.20;3.15;;;26.40;94.70;;;;;;4992412;28;20056;-75
2023/09/05 12:40:40;;;;;;;5.95;2.63;;;26.40;94.70;;;;;;4992775;28;20488;-75
2023/09/05 12:43:06;;;;;;;5.43;2.92;;;26.40;94.40;;;;;;5000611;28;20038;-75
2023/09/05 12:45:35;;;;;;;5.55;3.00;;;26.50;95.00;;;;;;4985381;28;20646;-75
2023/09/05 12:48:00;;;;;;;6.75;2.90;;;26.40;94.70;;;;;;4990997;28;20436;-75